Time;durP1;ratioP1;P1;durP2;ratioP2;P2;SDS_P1;SDS_P2;PMS_P1;PMS_P2;Temp;Humidity;BMP_temperature;BMP_pressure;BME280_temperature;BME280_humidity;BME280_pressure;Samples;Min_cycle;Max_cycle;Signal;HPM_P1;HPM_P2
2023/01/16 00:01:37;;;;;;;1.70;0.40;;;;;;;1.27;100.00;98365.80;104934;1302;24353;-30
2023/01/16 00:04:03;;;;;;;6.30;0.70;;;;;;;1.24;100.00;98365.02;104975;1302;22831;-30
2023/01/16 00:06:28;;;;;;;1.60;0.80;;;;;;;1.17;100.00;98359.19;105049;1303;24286;-35
2023/01/16 00:08:54;;;;;;;0.80;0.20;;;;;;;1.12;100.00;98357.71;104927;1303;24381;-35
2023/01/16 00:11:20;;;;;;;2.80;0.50;;;;;;;1.11;100.00;98361.52;104925;1301;24334;-35
2023/01/16 00:13:46;;;;;;;0.70;0.30;;;;;;;1.10;100.00;98361.15;104997;1302;22673;-37
2023/01/16 00:16:12;;;;;;;1.20;0.40;;;;;;;1.21;100.00;98361.17;104917;1302;24311;-35
2023/01/16 00:18:38;;;;;;;2.20;0.50;;;;;;;1.03;100.00;98362.98;104871;1302;22653;-36
2023/01/16 00:21:04;;;;;;;1.10;0.40;;;;;;;0.85;100.00;98369.02;104672;1302;24274;-36
2023/01/16 00:23:30;;;;;;;0.70;0.40;;;;;;;0.74;100.00;98375.23;104892;1304;23023;-31
2023/01/16 00:25:55;;;;;;;1.80;1.00;;;;;;;0.64;100.00;98368.77;104881;1301;24401;-32
2023/01/16 00:28:21;;;;;;;1.00;0.60;;;;;;;-102.28;19.20;19673.07;102170;1301;1002615;-31
2023/01/16 00:30:47;;;;;;;1.10;0.60;;;;;;;-128.00;-1.00;-1.00;101104;1303;1003377;-30
2023/01/16 00:33:13;;;;;;;2.40;0.30;;;;;;;-128.00;-1.00;-1.00;97042;1303;1005049;-31
2023/01/16 00:35:39;;;;;;;0.80;0.30;;;;;;;-128.00;-1.00;-1.00;100729;1303;1004926;-35
2023/01/16 00:38:04;;;;;;;2.50;0.60;;;;;;;-128.00;-1.00;-1.00;100682;1303;1004492;-34
2023/01/16 00:40:30;;;;;;;1.10;0.70;;;;;;;-128.00;-1.00;-1.00;101357;1303;1003689;-35
2023/01/16 00:42:56;;;;;;;2.30;0.70;;;;;;;-128.00;-1.00;-1.00;101359;1303;1004334;-32
2023/01/16 00:45:22;;;;;;;1.80;0.90;;;;;;;-128.00;-1.00;-1.00;101090;1303;1003371;-31
2023/01/16 00:47:48;;;;;;;2.70;0.80;;;;;;;-128.00;-1.00;-1.00;101321;1303;1004041;-35
2023/01/16 00:50:14;;;;;;;1.40;0.60;;;;;;;-128.00;-1.00;-1.00;101192;1303;1003171;-31
2023/01/16 00:52:40;;;;;;;1.60;0.60;;;;;;;-128.00;-1.00;-1.00;101474;1304;1005240;-31
2023/01/16 00:55:06;;;;;;;2.60;0.40;;;;;;;-128.00;-1.00;-1.00;101209;1304;1003810;-35
2023/01/16 00:57:32;;;;;;;2.70;0.80;;;;;;;-128.00;-1.00;-1.00;101422;1303;1004617;-31
2023/01/16 00:59:58;;;;;;;1.00;0.40;;;;;;;-128.00;-1.00;-1.00;101317;1303;1004145;-31
2023/01/16 01:02:23;;;;;;;1.30;0.60;;;;;;;-128.00;-1.00;-1.00;101263;1303;1004894;-35
2023/01/16 01:04:49;;;;;;;1.50;0.60;;;;;;;-128.00;-1.00;-1.00;101082;1303;1002581;-31
2023/01/16 01:07:15;;;;;;;3.60;0.90;;;;;;;-128.00;-1.00;-1.00;101369;1303;1003160;-30
2023/01/16 01:09:41;;;;;;;1.60;0.50;;;;;;;-128.00;-1.00;-1.00;101343;1303;1003761;-31
2023/01/16 01:12:06;;;;;;;2.00;0.70;;;;;;;-128.00;-1.00;-1.00;101352;1303;1002698;-31
2023/01/16 01:14:32;;;;;;;2.50;1.20;;;;;;;-128.00;-1.00;-1.00;101291;1303;1002677;-35
2023/01/16 01:16:58;;;;;;;0.80;0.40;;;;;;;-128.00;-1.00;-1.00;101395;1303;1003739;-30
2023/01/16 01:19:24;;;;;;;1.00;0.60;;;;;;;-128.00;-1.00;-1.00;101361;1303;1003915;-30
2023/01/16 01:21:50;;;;;;;2.30;0.60;;;;;;;-128.00;-1.00;-1.00;101418;1304;1004862;-32
2023/01/16 01:24:16;;;;;;;2.30;1.10;;;;;;;-128.00;-1.00;-1.00;101192;1303;1003568;-30
2023/01/16 01:26:41;;;;;;;0.90;0.40;;;;;;;-128.00;-1.00;-1.00;101308;1303;1005182;-34
2023/01/16 01:29:08;;;;;;;1.50;0.40;;;;;;;-128.00;-1.00;-1.00;101430;1303;1003126;-36
2023/01/16 01:31:34;;;;;;;2.70;0.90;;;;;;;-128.00;-1.00;-1.00;101343;1303;1002681;-36
2023/01/16 01:34:00;;;;;;;1.30;0.50;;;;;;;-128.00;-1.00;-1.00;101405;1303;1002874;-34
2023/01/16 01:36:26;;;;;;;1.10;0.50;;;;;;;-128.00;-1.00;-1.00;101122;1304;1005196;-28
2023/01/16 01:38:52;;;;;;;2.30;0.70;;;;;;;-128.00;-1.00;-1.00;101334;1303;1004297;-34
2023/01/16 01:41:18;;;;;;;1.70;0.70;;;;;;;-128.00;-1.00;-1.00;101349;1303;1002869;-31
2023/01/16 01:43:49;;;;;;;2.50;0.60;;;;;;;-128.00;-1.00;-1.00;101464;1304;1003847;-34
2023/01/16 01:46:21;;;;;;;0.60;0.50;;;;;;;-128.00;-1.00;-1.00;101417;1303;1003129;-31
2023/01/16 01:48:47;;;;;;;2.20;0.90;;;;;;;-128.00;-1.00;-1.00;101329;1301;1003283;-34
2023/01/16 01:51:18;;;;;;;1.30;0.60;;;;;;;-128.00;-1.00;-1.00;101450;1303;1003589;-34
2023/01/16 01:53:51;;;;;;;1.30;0.60;;;;;;;-128.00;-1.00;-1.00;101360;1301;1004284;-31
2023/01/16 01:56:23;;;;;;;1.70;0.30;;;;;;;-128.00;-1.00;-1.00;101339;1302;1002846;-32
2023/01/16 01:58:51;;;;;;;1.00;0.30;;;;;;;-128.00;-1.00;-1.00;101208;1304;1002954;-35
2023/01/16 02:01:17;;;;;;;1.80;0.70;;;;;;;-128.00;-1.00;-1.00;101261;1303;1002874;-36
2023/01/16 02:03:52;;;;;;;1.60;0.60;;;;;;;-128.00;-1.00;-1.00;101452;1304;1004450;-31
2023/01/16 02:06:22;;;;;;;4.90;0.60;;;;;;;-128.00;-1.00;-1.00;101295;1303;1004342;-31
2023/01/16 02:08:48;;;;;;;1.60;0.50;;;;;;;-128.00;-1.00;-1.00;101359;1303;1003944;-36
2023/01/16 02:13:58;;;;;;;3.50;1.20;;;;;;;-128.00;-1.00;-1.00;101365;1304;1003136;-35
2023/01/16 02:22:10;;;;;;;2.00;0.90;;;;;;;-128.00;-1.00;-1.00;101497;1303;1005024;-33
2023/01/16 02:24:55;;;;;;;1.20;0.30;;;;;;;-128.00;-1.00;-1.00;101124;1304;1003115;-31
2023/01/16 02:27:51;;;;;;;0.90;0.50;;;;;;;-128.00;-1.00;-1.00;101325;1303;1003269;-35
2023/01/16 02:30:33;;;;;;;0.90;0.60;;;;;;;-128.00;-1.00;-1.00;101336;1303;1004344;-33
2023/01/16 02:33:04;;;;;;;1.90;0.50;;;;;;;-128.00;-1.00;-1.00;101455;1303;1003465;-34
2023/01/16 02:35:54;;;;;;;2.20;1.00;;;;;;;-128.00;-1.00;-1.00;101215;1304;1003466;-31
2023/01/16 02:38:43;;;;;;;1.20;0.70;;;;;;;-128.00;-1.00;-1.00;101292;1304;1004638;-31
2023/01/16 02:41:24;;;;;;;5.70;1.40;;;;;;;-128.00;-1.00;-1.00;101461;1303;1003721;-35
2023/01/16 02:44:06;;;;;;;2.80;1.50;;;;;;;-128.00;-1.00;-1.00;101329;1304;1005588;-35
2023/01/16 02:46:43;;;;;;;5.70;1.20;;;;;;;-128.00;-1.00;-1.00;101215;1296;1003003;-34
2023/01/16 02:49:19;;;;;;;4.30;1.10;;;;;;;-128.00;-1.00;-1.00;101224;1303;1004089;-36
2023/01/16 02:52:08;;;;;;;9.80;2.10;;;;;;;-128.00;-1.00;-1.00;101282;1304;1003791;-31
2023/01/16 02:54:40;;;;;;;5.00;1.40;;;;;;;-128.00;-1.00;-1.00;101309;1303;1004739;-35
2023/01/16 02:57:09;;;;;;;3.10;1.70;;;;;;;-128.00;-1.00;-1.00;101155;1300;1002866;-30
2023/01/16 02:59:34;;;;;;;3.90;1.10;;;;;;;-128.00;-1.00;-1.00;101222;1304;1003434;-32
2023/01/16 03:02:00;;;;;;;2.30;1.00;;;;;;;-128.00;-1.00;-1.00;101337;1303;1003181;-33
2023/01/16 03:04:39;;;;;;;1.60;1.20;;;;;;;-128.00;-1.00;-1.00;101170;1304;1003599;-34
2023/01/16 03:07:29;;;;;;;4.40;1.30;;;;;;;-128.00;-1.00;-1.00;100499;1302;1002956;-31
2023/01/16 03:10:11;;;;;;;1.50;1.00;;;;;;;-128.00;-1.00;-1.00;101313;1304;1004510;-45
2023/01/16 03:13:01;;;;;;;4.90;1.80;;;;;;;-128.00;-1.00;-1.00;101233;1304;1003122;-36
2023/01/16 03:15:44;;;;;;;2.70;1.40;;;;;;;-128.00;-1.00;-1.00;101059;1303;1004136;-31
2023/01/16 03:18:23;;;;;;;2.90;1.20;;;;;;;-128.00;-1.00;-1.00;101387;1304;1004383;-34
2023/01/16 03:21:02;;;;;;;3.80;1.10;;;;;;;-128.00;-1.00;-1.00;101039;1303;1005125;-34
2023/01/16 03:23:35;;;;;;;1.80;1.10;;;;;;;-128.00;-1.00;-1.00;100910;1304;1003546;-34
2023/01/16 03:26:02;;;;;;;3.10;1.10;;;;;;;-128.00;-1.00;-1.00;101138;1304;1003804;-34
2023/01/16 03:28:35;;;;;;;3.60;1.30;;;;;;;-128.00;-1.00;-1.00;101333;1304;1004932;-31
2023/01/16 03:31:18;;;;;;;3.30;1.60;;;;;;;-128.00;-1.00;-1.00;101291;1303;1005177;-36
2023/01/16 03:34:08;;;;;;;3.50;1.00;;;;;;;-128.00;-1.00;-1.00;101012;1304;1004870;-30
2023/01/16 03:36:43;;;;;;;1.80;1.00;;;;;;;-128.00;-1.00;-1.00;101323;1303;1004958;-34
2023/01/16 03:39:08;;;;;;;3.70;1.00;;;;;;;-128.00;-1.00;-1.00;101200;1304;1004850;-34
2023/01/16 03:41:35;;;;;;;2.30;0.90;;;;;;;-128.00;-1.00;-1.00;101229;1303;1004490;-30
2023/01/16 03:44:04;;;;;;;3.30;1.50;;;;;;;-128.00;-1.00;-1.00;101067;1303;1004673;-30
2023/01/16 03:46:30;;;;;;;3.40;1.00;;;;;;;-128.00;-1.00;-1.00;99701;1304;2003506;-35
2023/01/16 03:49:02;;;;;;;2.50;0.90;;;;;;;-128.00;-1.00;-1.00;101438;1303;1003683;-31
2023/01/16 03:51:34;;;;;;;3.40;1.10;;;;;;;-128.00;-1.00;-1.00;101206;1298;1002523;-29
2023/01/16 03:54:13;;;;;;;4.10;0.80;;;;;;;-128.00;-1.00;-1.00;100602;1304;1004479;-33
2023/01/16 03:56:50;;;;;;;3.10;0.80;;;;;;;-128.00;-1.00;-1.00;101306;1303;1004261;-30
2023/01/16 03:59:16;;;;;;;4.00;1.50;;;;;;;-128.00;-1.00;-1.00;101315;1303;1003119;-30
2023/01/16 04:01:54;;;;;;;2.50;0.70;;;;;;;-128.00;-1.00;-1.00;101277;1303;1003844;-33
2023/01/16 04:04:27;;;;;;;5.20;0.70;;;;;;;-128.00;-1.00;-1.00;101328;1303;1002941;-36
2023/01/16 04:07:03;;;;;;;4.70;0.80;;;;;;;-128.00;-1.00;-1.00;101265;1303;1003365;-40
2023/01/16 04:09:42;;;;;;;2.20;0.80;;;;;;;-128.00;-1.00;-1.00;101273;1303;1003030;-30
2023/01/16 04:12:07;;;;;;;8.10;0.70;;;;;;;-128.00;-1.00;-1.00;101010;1304;1003728;-31
2023/01/16 04:14:33;;;;;;;6.30;1.00;;;;;;;-128.00;-1.00;-1.00;101001;1303;1005238;-34
2023/01/16 04:16:59;;;;;;;2.50;0.80;;;;;;;-128.00;-1.00;-1.00;101219;1303;1004439;-30
2023/01/16 04:19:25;;;;;;;1.50;0.80;;;;;;;-128.00;-1.00;-1.00;101118;1303;1005064;-34
2023/01/16 04:21:51;;;;;;;2.60;1.20;;;;;;;-128.00;-1.00;-1.00;101169;1303;1005051;-30
2023/01/16 04:24:17;;;;;;;1.60;0.60;;;;;;;-128.00;-1.00;-1.00;101178;1303;1004628;-33
2023/01/16 04:26:42;;;;;;;2.90;1.30;;;;;;;-128.00;-1.00;-1.00;101107;1303;1005359;-31
2023/01/16 04:29:08;;;;;;;2.70;0.60;;;;;;;-128.00;-1.00;-1.00;101127;1303;1004765;-34
2023/01/16 04:31:34;;;;;;;1.30;0.60;;;;;;;-128.00;-1.00;-1.00;101095;1303;1005173;-35
2023/01/16 04:34:00;;;;;;;1.30;0.60;;;;;;;-128.00;-1.00;-1.00;101262;1304;1003874;-34
2023/01/16 04:36:26;;;;;;;1.50;0.90;;;;;;;-128.00;-1.00;-1.00;101132;1303;1004999;-36
2023/01/16 05:15:21;;;;;;;3.30;1.30;;;;;;;-0.09;100.00;98177.36;104686;1295;557412;-31
2023/01/16 05:17:47;;;;;;;4.10;1.30;;;;;;;0.10;100.00;98174.57;104281;1292;379777;-33
2023/01/16 05:20:14;;;;;;;2.20;1.00;;;;;;;0.08;100.00;98173.15;104417;1292;1002130;-34
2023/01/16 05:22:39;;;;;;;6.30;1.20;;;;;;;0.08;100.00;98166.17;104959;1292;22661;-34
2023/01/16 05:25:06;;;;;;;3.90;1.50;;;;;;;0.04;100.00;98157.09;102891;1299;1003122;-34
2023/01/16 05:27:32;;;;;;;2.70;1.40;;;;;;;-0.01;100.00;98153.48;98936;1302;1002914;-30
2023/01/16 05:29:57;;;;;;;2.30;1.40;;;;;;;-0.03;100.00;98154.54;104227;1301;1002508;-30
2023/01/16 05:32:23;;;;;;;3.40;2.10;;;;;;;-0.05;100.00;98152.52;104797;1302;23039;-35
2023/01/16 05:34:48;;;;;;;2.60;1.30;;;;;;;-0.07;100.00;98147.09;105086;1299;23158;-30
2023/01/16 05:37:14;;;;;;;3.50;1.50;;;;;;;-0.09;100.00;98147.81;104961;1302;24768;-33
2023/01/16 05:39:40;;;;;;;4.30;2.20;;;;;;;-0.09;100.00;98147.13;105020;1299;22815;-31
2023/01/16 05:42:20;;;;;;;2.90;1.80;;;;;;;-51.26;59.60;58885.41;103710;1298;1002472;-31
2023/01/16 05:44:51;;;;;;;9.70;1.90;;;;;;;-128.00;-1.00;-1.00;101278;1302;1003128;-38
2023/01/16 05:47:18;;;;;;;3.40;2.50;;;;;;;-128.00;-1.00;-1.00;101532;1302;1003078;-31
2023/01/16 05:49:43;;;;;;;3.00;2.10;;;;;;;-128.00;-1.00;-1.00;101439;1302;1003825;-30
2023/01/16 05:52:09;;;;;;;4.80;2.10;;;;;;;-128.00;-1.00;-1.00;101448;1302;1003113;-30
2023/01/16 05:54:35;;;;;;;6.00;3.00;;;;;;;-128.00;-1.00;-1.00;101349;1302;1003055;-31
2023/01/16 05:57:01;;;;;;;4.90;2.20;;;;;;;-128.00;-1.00;-1.00;101383;1302;1003243;-31
2023/01/16 05:59:26;;;;;;;7.30;2.50;;;;;;;-128.00;-1.00;-1.00;101492;1302;1004543;-35
2023/01/16 06:01:53;;;;;;;4.80;2.50;;;;;;;-128.00;-1.00;-1.00;101488;1302;1004432;-35
2023/01/16 06:04:19;;;;;;;3.60;2.00;;;;;;;-128.00;-1.00;-1.00;101376;1302;1003055;-31
2023/01/16 06:06:45;;;;;;;5.30;2.70;;;;;;;-128.00;-1.00;-1.00;101443;1302;1003800;-35
2023/01/16 06:09:11;;;;;;;4.70;1.80;;;;;;;-128.00;-1.00;-1.00;101434;1302;1003107;-32
2023/01/16 06:11:37;;;;;;;2.60;2.10;;;;;;;-128.00;-1.00;-1.00;101276;1302;1004150;-31
2023/01/16 06:14:04;;;;;;;3.00;2.10;;;;;;;-128.00;-1.00;-1.00;101452;1302;1003913;-31
2023/01/16 06:16:31;;;;;;;6.00;2.90;;;;;;;-128.00;-1.00;-1.00;101464;1302;1003394;-35
2023/01/16 06:18:58;;;;;;;5.10;3.80;;;;;;;-128.00;-1.00;-1.00;101396;1302;1002932;-38
2023/01/16 06:21:23;;;;;;;3.70;2.40;;;;;;;-128.00;-1.00;-1.00;101296;1302;1002925;-32
2023/01/16 06:23:49;;;;;;;4.30;2.80;;;;;;;-128.00;-1.00;-1.00;101334;1302;1003063;-34
2023/01/16 06:26:14;;;;;;;6.80;3.00;;;;;;;-128.00;-1.00;-1.00;101295;1302;1004893;-29
2023/01/16 06:28:41;;;;;;;4.50;2.80;;;;;;;-128.00;-1.00;-1.00;101466;1302;1003735;-34
2023/01/16 06:31:06;;;;;;;6.10;3.30;;;;;;;-128.00;-1.00;-1.00;101358;1302;1003512;-31
2023/01/16 06:33:32;;;;;;;7.90;3.30;;;;;;;-128.00;-1.00;-1.00;101108;1302;1002907;-35
2023/01/16 06:35:58;;;;;;;7.80;5.30;;;;;;;-128.00;-1.00;-1.00;101360;1302;1002891;-31
2023/01/16 06:38:24;;;;;;;5.80;3.90;;;;;;;-128.00;-1.00;-1.00;101501;1302;1003749;-35
2023/01/16 06:40:55;;;;;;;5.40;3.50;;;;;;;-128.00;-1.00;-1.00;101414;1302;1003013;-34
2023/01/16 06:43:27;;;;;;;17.50;6.00;;;;;;;-128.00;-1.00;-1.00;101443;1302;1003984;-35
2023/01/16 06:45:53;;;;;;;6.70;4.60;;;;;;;-128.00;-1.00;-1.00;101484;1302;1003225;-34
2023/01/16 06:48:20;;;;;;;7.80;4.10;;;;;;;-128.00;-1.00;-1.00;101331;1302;1003635;-30
2023/01/16 06:50:45;;;;;;;12.40;7.00;;;;;;;-128.00;-1.00;-1.00;101366;1302;1003962;-33
2023/01/16 06:53:11;;;;;;;6.70;4.70;;;;;;;-128.00;-1.00;-1.00;101479;1302;1002603;-37
2023/01/16 06:55:42;;;;;;;9.70;4.50;;;;;;;-128.00;-1.00;-1.00;101266;1299;1002987;-31
2023/01/16 06:58:08;;;;;;;12.40;7.80;;;;;;;-128.00;-1.00;-1.00;101392;1302;1004854;-31
2023/01/16 07:00:34;;;;;;;9.70;5.00;;;;;;;-128.00;-1.00;-1.00;101315;1302;1003551;-32
2023/01/16 07:03:01;;;;;;;8.50;6.50;;;;;;;-128.00;-1.00;-1.00;101318;1302;1003945;-35
2023/01/16 07:05:27;;;;;;;15.00;7.00;;;;;;;-128.00;-1.00;-1.00;101323;1302;1003224;-34
2023/01/16 07:07:53;;;;;;;8.30;5.90;;;;;;;-128.00;-1.00;-1.00;101340;1302;1004577;-31
2023/01/16 07:10:20;;;;;;;9.80;5.60;;;;;;;-128.00;-1.00;-1.00;101340;1302;1003712;-35
2023/01/16 07:12:50;;;;;;;11.00;6.50;;;;;;;-128.00;-1.00;-1.00;101410;1302;1002970;-35
2023/01/16 07:23:25;;;;;;;12.10;6.90;;;;;;;-128.00;-1.00;-1.00;101423;1302;1004770;-31
2023/01/16 07:25:51;;;;;;;8.70;4.80;;;;;;;-128.00;-1.00;-1.00;101406;1303;1002942;-30
2023/01/16 07:28:17;;;;;;;9.80;5.90;;;;;;;-128.00;-1.00;-1.00;101325;1302;1003140;-37
2023/01/16 07:30:44;;;;;;;118.00;40.10;;;;;;;-128.00;-1.00;-1.00;101372;1302;1003592;-30
2023/01/16 07:33:10;;;;;;;343.90;86.70;;;;;;;-128.00;-1.00;-1.00;101346;1302;1002466;-30
2023/01/16 07:35:36;;;;;;;256.30;66.60;;;;;;;-128.00;-1.00;-1.00;101411;1302;1003078;-31
2023/01/16 07:38:03;;;;;;;179.50;58.90;;;;;;;-128.00;-1.00;-1.00;101357;1302;1003036;-34
2023/01/16 07:40:28;;;;;;;187.10;69.90;;;;;;;-128.00;-1.00;-1.00;101348;1302;1002538;-31
2023/01/16 07:42:54;;;;;;;238.10;74.90;;;;;;;-128.00;-1.00;-1.00;101309;1303;1003514;-35
2023/01/16 07:45:20;;;;;;;221.00;64.80;;;;;;;-128.00;-1.00;-1.00;101148;1303;1003101;-35
2023/01/16 07:47:46;;;;;;;467.90;137.70;;;;;;;-128.00;-1.00;-1.00;101369;1302;1003630;-35
2023/01/16 07:50:12;;;;;;;287.20;81.50;;;;;;;-128.00;-1.00;-1.00;101368;1303;1003594;-33
2023/01/16 07:52:37;;;;;;;377.40;104.20;;;;;;;-128.00;-1.00;-1.00;101476;1303;1004077;-36
2023/01/16 07:55:04;;;;;;;308.00;85.60;;;;;;;-128.00;-1.00;-1.00;101358;1302;1003667;-31
2023/01/16 07:57:30;;;;;;;170.20;57.70;;;;;;;-128.00;-1.00;-1.00;101339;1302;1005555;-36
2023/01/16 07:59:55;;;;;;;135.00;49.70;;;;;;;-128.00;-1.00;-1.00;101428;1302;1003621;-30
2023/01/16 08:02:21;;;;;;;69.10;30.10;;;;;;;-128.00;-1.00;-1.00;101340;1301;1003269;-31
2023/01/16 08:04:47;;;;;;;79.30;36.50;;;;;;;-128.00;-1.00;-1.00;101184;1303;1003162;-35
2023/01/16 08:07:13;;;;;;;59.50;26.70;;;;;;;-128.00;-1.00;-1.00;97669;1302;1005977;-31
2023/01/16 08:09:38;;;;;;;27.00;14.90;;;;;;;-128.00;-1.00;-1.00;99032;1302;1003152;-34
2023/01/16 08:12:04;;;;;;;25.60;14.80;;;;;;;-128.00;-1.00;-1.00;86793;1302;2002517;-34
2023/01/16 08:14:30;;;;;;;19.80;13.20;;;;;;;-128.00;-1.00;-1.00;96279;1302;2001807;-31
2023/01/16 08:16:56;;;;;;;23.60;11.70;;;;;;;-128.00;-1.00;-1.00;98364;1304;1003405;-31
2023/01/16 08:19:22;;;;;;;19.00;12.20;;;;;;;-128.00;-1.00;-1.00;99916;1303;1003346;-35
2023/01/16 08:21:49;;;;;;;20.40;11.10;;;;;;;-128.00;-1.00;-1.00;101385;1302;1003187;-34
2023/01/16 08:24:15;;;;;;;26.50;14.70;;;;;;;-128.00;-1.00;-1.00;101296;1302;1003624;-34
2023/01/16 08:26:41;;;;;;;20.10;12.90;;;;;;;-128.00;-1.00;-1.00;101347;1300;1002589;-31
2023/01/16 08:29:07;;;;;;;13.40;8.00;;;;;;;-128.00;-1.00;-1.00;101352;1302;1004079;-36
2023/01/16 08:31:33;;;;;;;14.10;7.90;;;;;;;-128.00;-1.00;-1.00;101392;1303;1003520;-34
2023/01/16 08:33:59;;;;;;;13.20;7.90;;;;;;;-128.00;-1.00;-1.00;101364;1302;1002580;-34
2023/01/16 08:36:25;;;;;;;13.60;7.10;;;;;;;-128.00;-1.00;-1.00;101329;1302;1003701;-31
2023/01/16 08:38:51;;;;;;;9.20;5.80;;;;;;;-128.00;-1.00;-1.00;101367;1302;1002798;-30
2023/01/16 08:51:50;;;;;;;8.70;5.70;;;;;;;-128.00;-1.00;-1.00;101376;1302;1003442;-34
2023/01/16 08:54:16;;;;;;;9.70;5.80;;;;;;;-128.00;-1.00;-1.00;101282;1302;1003827;-34
2023/01/16 08:56:42;;;;;;;28.60;16.20;;;;;;;-128.00;-1.00;-1.00;101319;1302;1003733;-34
2023/01/16 08:59:10;;;;;;;147.40;65.30;;;;;;;-128.00;-1.00;-1.00;101180;1302;1003218;-30
2023/01/16 09:01:37;;;;;;;285.10;87.10;;;;;;;-128.00;-1.00;-1.00;101376;1302;1003254;-31
2023/01/16 09:04:03;;;;;;;208.10;53.20;;;;;;;-128.00;-1.00;-1.00;101503;1301;1002855;-34
2023/01/16 09:06:29;;;;;;;171.30;47.80;;;;;;;-128.00;-1.00;-1.00;101381;1302;1002582;-30
2023/01/16 09:08:55;;;;;;;286.10;77.40;;;;;;;-128.00;-1.00;-1.00;101287;1302;1003872;-30
2023/01/16 09:14:00;;;;;;;204.20;64.50;;;;;;;-128.00;-1.00;-1.00;100612;1302;1002889;-31
2023/01/16 09:16:25;;;;;;;165.30;58.60;;;;;;;-128.00;-1.00;-1.00;101260;1295;1002775;-35
2023/01/16 09:18:51;;;;;;;71.10;29.70;;;;;;;-128.00;-1.00;-1.00;101275;1301;1004867;-35
2023/01/16 09:21:19;;;;;;;27.90;14.00;;;;;;;-128.00;-1.00;-1.00;100717;1302;1004762;-32
2023/01/16 09:23:46;;;;;;;30.90;10.70;;;;;;;-128.00;-1.00;-1.00;100468;1301;1003121;-33
2023/01/16 09:26:12;;;;;;;18.30;8.20;;;;;;;-128.00;-1.00;-1.00;101279;1302;1003524;-32
2023/01/16 09:28:37;;;;;;;17.10;8.80;;;;;;;-128.00;-1.00;-1.00;99959;1303;1003483;-30
2023/01/16 09:31:03;;;;;;;10.00;7.30;;;;;;;-128.00;-1.00;-1.00;100618;1303;1003048;-30
2023/01/16 09:33:29;;;;;;;14.10;5.40;;;;;;;-128.00;-1.00;-1.00;100552;1303;1002508;-34
2023/01/16 09:35:55;;;;;;;16.80;8.20;;;;;;;-128.00;-1.00;-1.00;100574;1303;1003411;-34
2023/01/16 09:38:21;;;;;;;12.60;6.40;;;;;;;-128.00;-1.00;-1.00;101254;1303;1003173;-30
2023/01/16 09:40:49;;;;;;;14.20;6.90;;;;;;;-128.00;-1.00;-1.00;101285;1302;1003105;-34
2023/01/16 09:43:39;;;;;;;11.80;6.60;;;;;;;-128.00;-1.00;-1.00;101285;1300;1003132;-35
2023/01/16 09:46:15;;;;;;;10.90;6.30;;;;;;;-128.00;-1.00;-1.00;101316;1302;1004866;-34
2023/01/16 09:48:58;;;;;;;14.40;8.30;;;;;;;-128.00;-1.00;-1.00;101372;1302;1003028;-30
2023/01/16 09:51:27;;;;;;;14.20;8.40;;;;;;;-128.00;-1.00;-1.00;101410;1302;1003866;-35
2023/01/16 09:59:29;;;;;;;9.70;7.50;;;;;;;-128.00;-1.00;-1.00;101294;1301;1002838;-35
2023/01/16 10:02:00;;;;;;;10.10;5.40;;;;;;;-128.00;-1.00;-1.00;101297;1302;1003558;-35
2023/01/16 10:04:27;;;;;;;12.00;7.00;;;;;;;-128.00;-1.00;-1.00;101309;1302;1003533;-32
2023/01/16 10:07:06;;;;;;;9.50;6.40;;;;;;;-128.00;-1.00;-1.00;101475;1302;1003593;-32
2023/01/16 10:09:48;;;;;;;8.50;5.80;;;;;;;-128.00;-1.00;-1.00;101274;1302;1002820;-35
2023/01/16 10:12:14;;;;;;;10.50;7.10;;;;;;;-128.00;-1.00;-1.00;101277;1303;1002985;-35
2023/01/16 10:14:56;;;;;;;26.80;13.00;;;;;;;-128.00;-1.00;-1.00;101397;1302;1002636;-35
2023/01/16 10:17:48;;;;;;;40.50;14.40;;;;;;;-128.00;-1.00;-1.00;100659;1303;1004848;-34
2023/01/16 10:20:46;;;;;;;45.20;17.30;;;;;;;-128.00;-1.00;-1.00;101282;1303;1003257;-37
2023/01/16 10:23:26;;;;;;;57.20;16.80;;;;;;;-128.00;-1.00;-1.00;101385;1303;1002805;-33
2023/01/16 10:25:58;;;;;;;141.90;39.30;;;;;;;-128.00;-1.00;-1.00;101348;1302;1003284;-37
2023/01/16 10:28:47;;;;;;;55.20;17.50;;;;;;;-128.00;-1.00;-1.00;101318;1299;1003022;-30
2023/01/16 10:31:33;;;;;;;89.00;25.20;;;;;;;-128.00;-1.00;-1.00;101411;1302;1003824;-36
2023/01/16 10:34:15;;;;;;;182.30;51.00;;;;;;;-128.00;-1.00;-1.00;101377;1302;1003971;-33
2023/01/16 10:36:43;;;;;;;61.30;21.90;;;;;;;-128.00;-1.00;-1.00;101269;1303;1003429;-36
2023/01/16 10:39:10;;;;;;;36.80;11.40;;;;;;;-128.00;-1.00;-1.00;101393;1303;1004381;-36
2023/01/16 10:49:49;;;;;;;20.30;9.50;;;;;;;-128.00;-1.00;-1.00;101335;1302;1003325;-32
2023/01/16 10:52:15;;;;;;;7.10;4.80;;;;;;;-128.00;-1.00;-1.00;101266;1303;1003135;-34
2023/01/16 10:54:41;;;;;;;8.20;5.30;;;;;;;-128.00;-1.00;-1.00;101308;1303;1003544;-31
2023/01/16 10:57:15;;;;;;;7.80;5.30;;;;;;;-128.00;-1.00;-1.00;101446;1303;1003535;-31
2023/01/16 10:59:40;;;;;;;11.40;5.90;;;;;;;-128.00;-1.00;-1.00;101310;1303;1002795;-34
2023/01/16 11:02:23;;;;;;;24.70;7.50;;;;;;;-128.00;-1.00;-1.00;99817;1302;1002790;-31
2023/01/16 11:47:42;;;;;;;3.90;2.90;;;;;;;10.52;73.02;97608.64;104064;1288;472352;-32
2023/01/16 11:50:21;;;;;;;4.90;2.50;;;;;;;10.51;70.32;97605.13;104468;1305;23281;-32
2023/01/16 11:52:47;;;;;;;5.50;3.00;;;;;;;10.58;71.02;97596.39;104549;1295;22564;-32
2023/01/16 11:55:13;;;;;;;1.80;0.70;;;;;;;10.51;67.97;97586.11;104530;1304;23004;-34
2023/01/16 11:57:53;;;;;;;5.90;3.00;;;;;;;10.71;70.70;97575.47;104560;1303;22815;-31
2023/01/16 12:00:39;;;;;;;4.00;2.60;;;;;;;10.79;70.73;97568.09;104285;1305;24299;-35
2023/01/16 12:03:28;;;;;;;5.10;2.00;;;;;;;10.91;65.30;97561.89;104547;1305;22586;-31
2023/01/16 12:06:03;;;;;;;4.50;2.30;;;;;;;10.93;65.97;97565.20;104543;1295;22651;-31
2023/01/16 12:08:53;;;;;;;3.70;2.20;;;;;;;11.08;66.46;97563.80;104520;1305;22818;-34
2023/01/16 12:11:43;;;;;;;3.70;2.00;;;;;;;10.99;62.59;97555.80;104460;1303;22520;-31
2023/01/16 12:14:29;;;;;;;6.90;2.40;;;;;;;11.04;66.47;97549.96;104530;1292;22659;-30
2023/01/16 12:17:16;;;;;;;4.00;1.90;;;;;;;10.98;64.24;97541.72;104498;1305;24214;-31
2023/01/16 12:20:06;;;;;;;3.50;2.00;;;;;;;10.96;63.36;97540.00;104432;1301;22791;-34
2023/01/16 12:22:51;;;;;;;5.40;3.30;;;;;;;10.84;62.74;97536.38;104549;1305;22948;-31
2023/01/16 12:25:37;;;;;;;5.50;3.90;;;;;;;10.83;63.51;97531.05;104436;1292;22797;-35
2023/01/16 12:28:28;;;;;;;4.10;2.50;;;;;;;10.75;61.13;97525.00;104536;1304;22651;-32
2023/01/16 12:31:31;;;;;;;2.90;1.90;;;;;;;10.65;61.54;97521.20;104500;1301;22570;-31
2023/01/16 12:34:15;;;;;;;7.50;2.00;;;;;;;10.83;63.93;97511.92;104307;1304;22944;-36
2023/01/16 12:37:09;;;;;;;5.70;1.70;;;;;;;10.95;62.96;97501.26;104523;1305;23185;-34
2023/01/16 12:39:43;;;;;;;3.20;1.90;;;;;;;10.72;58.99;97501.17;104512;1298;22565;-35
2023/01/16 12:45:15;;;;;;;2.90;1.60;;;;;;;10.33;59.41;97492.40;104578;1288;22657;-35
2023/01/16 12:47:57;;;;;;;4.40;2.20;;;;;;;10.40;60.74;97487.00;104733;1305;23054;-35
2023/01/16 12:50:39;;;;;;;6.60;2.60;;;;;;;10.59;62.58;97480.50;104353;1305;22569;-35
2023/01/16 12:53:32;;;;;;;3.40;2.00;;;;;;;10.76;61.25;97474.02;104334;1305;22565;-35
2023/01/16 12:56:19;;;;;;;5.60;1.70;;;;;;;10.49;58.79;97473.04;104421;1294;22685;-35
2023/01/16 12:58:47;;;;;;;2.80;2.10;;;;;;;10.50;59.48;97466.14;104650;1291;25265;-31
2023/01/16 13:01:18;;;;;;;13.60;6.60;;;;;;;10.48;59.35;97459.17;104580;1305;22665;-36
2023/01/16 13:03:54;;;;;;;4.30;1.30;;;;;;;10.46;59.18;97453.61;104534;1305;24388;-32
2023/01/16 13:06:44;;;;;;;16.30;6.00;;;;;;;10.40;58.77;97447.49;104630;1296;23134;-36
2023/01/16 13:09:36;;;;;;;166.40;62.70;;;;;;;10.47;57.63;97442.40;104340;1297;22803;-36
2023/01/16 13:14:46;;;;;;;;;;;;;;;10.23;57.29;97440.02;104490;1305;23012;-32
2023/01/16 13:17:16;;;;;;;164.80;85.30;;;;;;;10.13;55.68;97439.45;104564;1305;22581;-36
2023/01/16 13:19:42;;;;;;;374.10;213.50;;;;;;;10.11;56.44;97442.13;104530;1292;22602;-33
2023/01/16 13:22:29;;;;;;;138.40;80.10;;;;;;;10.06;56.86;97439.11;104459;1298;22571;-36
2023/01/16 13:25:02;;;;;;;85.40;50.10;;;;;;;10.19;57.59;97432.48;104491;1298;22601;-32
2023/01/16 13:27:41;;;;;;;81.20;52.50;;;;;;;10.05;57.44;97434.80;104449;1295;22682;-36
2023/01/16 13:30:14;;;;;;;167.90;100.30;;;;;;;10.00;58.25;97439.05;104506;1299;22664;-36
2023/01/16 13:32:45;;;;;;;134.40;72.00;;;;;;;10.06;58.06;97433.80;104533;1295;22661;-32
2023/01/16 13:35:22;;;;;;;155.70;78.00;;;;;;;10.09;58.58;97431.48;104478;1305;22569;-35
2023/01/16 13:38:12;;;;;;;73.00;29.30;;;;;;;9.99;57.00;97424.29;104316;1305;22796;-37
2023/01/16 13:41:06;;;;;;;44.10;8.30;;;;;;;9.83;56.51;97417.52;104551;1305;22809;-33